createdAt,value
2018-01-14T00:02:00.188Z,100651.97
2018-01-14T00:04:27.680Z,100644.82
2018-01-14T00:06:55.527Z,100648.73
2018-01-14T00:09:22.992Z,100639.11
2018-01-14T00:11:51.807Z,100641.06
2018-01-14T00:14:19.282Z,100641.09
2018-01-14T00:16:46.825Z,100642.23
2018-01-14T00:19:14.301Z,100637.27
2018-01-14T00:21:41.757Z,100634.16
2018-01-14T00:24:09.248Z,100634.06
2018-01-14T00:26:36.761Z,100630.02
2018-01-14T00:29:04.246Z,100628.38
2018-01-14T00:31:31.710Z,100626.30
2018-01-14T00:33:59.210Z,100624.63
2018-01-14T00:36:26.707Z,100614.29
2018-01-14T00:38:54.426Z,100620.61
2018-01-14T00:41:21.902Z,100619.55
2018-01-14T00:43:49.415Z,100621.94
2018-01-14T00:46:16.898Z,100626.19
2018-01-14T00:48:44.492Z,100624.23
2018-01-14T00:51:12.325Z,100614.61
2018-01-14T00:53:39.808Z,100606.44
2018-01-14T00:56:07.299Z,100605.93
2018-01-14T00:58:34.783Z,100600.23
2018-01-14T01:01:02.262Z,100596.09
2018-01-14T01:03:29.727Z,100609.02
2018-01-14T01:05:57.219Z,100606.45
2018-01-14T01:08:24.687Z,100601.67
2018-01-14T01:10:52.191Z,100605.39
2018-01-14T01:13:19.646Z,100605.41
2018-01-14T01:15:47.162Z,100609.24
2018-01-14T01:18:14.634Z,100603.77
2018-01-14T01:20:42.338Z,100602.50
2018-01-14T01:23:10.208Z,100600.05
2018-01-14T01:25:37.675Z,100610.39
2018-01-14T01:28:05.171Z,100619.06
2018-01-14T01:30:33.461Z,100612.77
2018-01-14T01:33:00.978Z,100622.09
2018-01-14T01:35:28.474Z,100614.95
2018-01-14T01:37:55.991Z,100618.96
2018-01-14T01:40:23.495Z,100616.40
2018-01-14T01:42:51.058Z,100614.51
2018-01-14T01:45:18.583Z,100619.17
2018-01-14T01:47:46.130Z,100621.66
2018-01-14T01:50:13.643Z,100621.25
2018-01-14T01:52:41.126Z,100626.84
2018-01-14T01:55:08.627Z,100626.84
2018-01-14T01:57:36.106Z,100621.24
2018-01-14T02:00:03.616Z,100617.74
2018-01-14T02:02:31.078Z,100613.18
2018-01-14T02:04:58.598Z,100617.31
2018-01-14T02:07:26.091Z,100613.58
2018-01-14T02:09:53.582Z,100612.25
2018-01-14T02:12:21.066Z,100614.75
2018-01-14T02:14:48.706Z,100618.96
2018-01-14T02:17:16.178Z,100619.91
2018-01-14T02:19:43.643Z,100615.04
2018-01-14T02:22:11.143Z,100621.05
2018-01-14T02:24:38.839Z,100618.88
2018-01-14T02:27:06.365Z,100618.45
2018-01-14T02:29:33.868Z,100613.28
2018-01-14T02:32:01.734Z,100617.00
2018-01-14T02:34:29.223Z,100612.02
2018-01-14T02:36:56.714Z,100612.97
2018-01-14T02:39:24.199Z,100606.05
2018-01-14T02:41:51.690Z,100612.26
2018-01-14T02:44:19.167Z,100610.39
2018-01-14T02:46:46.667Z,100605.00
2018-01-14T02:49:14.144Z,100608.73
2018-01-14T02:51:41.638Z,100615.86
2018-01-14T02:54:09.149Z,100612.13
2018-01-14T02:56:36.652Z,100617.63
2018-01-14T02:59:04.500Z,100617.95
2018-01-14T03:01:32.000Z,100622.28
2018-01-14T03:03:59.526Z,100620.81
2018-01-14T03:06:27.010Z,100620.22
2018-01-14T03:08:54.527Z,100619.89
2018-01-14T03:11:22.020Z,100623.52
2018-01-14T03:13:49.506Z,100615.98
2018-01-14T03:16:16.979Z,100612.56
2018-01-14T03:18:44.489Z,100614.31
2018-01-14T03:21:11.970Z,100610.90
2018-01-14T03:23:39.635Z,100612.15
2018-01-14T03:26:08.303Z,100611.52
2018-01-14T03:28:36.003Z,100605.11
2018-01-14T03:31:03.493Z,100607.69
2018-01-14T03:33:30.972Z,100601.09
2018-01-14T03:35:58.458Z,100605.31
2018-01-14T03:38:25.939Z,100596.52
2018-01-14T03:40:53.754Z,100597.23
2018-01-14T03:43:21.221Z,100596.41
2018-01-14T03:45:48.933Z,100595.59
2018-01-14T03:48:16.435Z,100592.08
2018-01-14T03:50:43.987Z,100597.13
2018-01-14T03:53:11.462Z,100595.48
2018-01-14T03:55:39.119Z,100595.80
2018-01-14T03:58:06.591Z,100593.95
2018-01-14T04:00:34.058Z,100600.03
2018-01-14T04:03:01.636Z,100595.18
2018-01-14T04:05:29.086Z,100595.78
2018-01-14T04:07:56.613Z,100600.66
2018-01-14T04:10:24.111Z,100592.50
2018-01-14T04:12:51.643Z,100594.34
2018-01-14T04:15:19.351Z,100592.89
2018-01-14T04:17:46.852Z,100595.57
2018-01-14T04:20:14.331Z,100593.50
2018-01-14T04:22:41.826Z,100598.37
2018-01-14T04:25:09.336Z,100594.44
2018-01-14T04:27:36.864Z,100596.50
2018-01-14T04:30:04.370Z,100599.91
2018-01-14T04:32:31.866Z,100600.64
2018-01-14T04:34:59.398Z,100600.33
2018-01-14T04:37:26.967Z,100599.08
2018-01-14T04:39:54.478Z,100592.48
2018-01-14T04:42:21.974Z,100597.73
2018-01-14T04:44:49.463Z,100597.03
2018-01-14T04:47:16.995Z,100587.73
2018-01-14T04:49:44.498Z,100589.80
2018-01-14T04:52:11.982Z,100587.62
2018-01-14T04:54:39.523Z,100595.58
2018-01-14T04:57:07.036Z,100595.80
2018-01-14T04:59:34.962Z,100598.06
2018-01-14T05:02:02.458Z,100591.24
2018-01-14T05:04:29.953Z,100599.08
2018-01-14T05:06:57.478Z,100594.77
2018-01-14T05:09:24.990Z,100590.10
2018-01-14T05:11:52.495Z,100589.39
2018-01-14T05:14:19.960Z,100598.98
2018-01-14T05:16:47.479Z,100589.70
2018-01-14T05:19:14.983Z,100596.81
2018-01-14T05:21:42.631Z,100596.29
2018-01-14T05:24:10.498Z,100591.45
2018-01-14T05:26:38.003Z,100590.81
2018-01-14T05:29:05.506Z,100594.44
2018-01-14T05:31:33.016Z,100600.13
2018-01-14T05:34:00.563Z,100600.73
2018-01-14T05:36:28.115Z,100607.15
2018-01-14T05:38:55.643Z,100605.48
2018-01-14T05:41:23.179Z,100603.92
2018-01-14T05:43:50.691Z,100603.62
2018-01-14T05:46:18.232Z,100592.48
2018-01-14T05:48:45.766Z,100605.28
2018-01-14T05:51:13.235Z,100605.17
2018-01-14T05:53:40.887Z,100610.34
2018-01-14T05:56:08.363Z,100611.79
2018-01-14T05:58:35.854Z,100611.91
2018-01-14T06:01:03.381Z,100609.42
2018-01-14T06:03:31.107Z,100607.24
2018-01-14T06:05:58.649Z,100606.02
2018-01-14T06:08:26.478Z,100605.81
2018-01-14T06:10:53.966Z,100607.03
2018-01-14T06:13:21.443Z,100592.80
2018-01-14T06:15:48.941Z,100595.97
2018-01-14T06:18:16.446Z,100597.93
2018-01-14T06:20:44.002Z,100599.14
2018-01-14T06:23:11.486Z,100597.41
2018-01-14T06:25:39.010Z,100591.83
2018-01-14T06:28:06.482Z,100600.09
2018-01-14T06:30:33.974Z,100596.45
2018-01-14T06:33:01.922Z,100596.98
2018-01-14T06:35:29.411Z,100597.81
2018-01-14T06:37:56.950Z,100602.77
2018-01-14T06:40:24.443Z,100603.81
2018-01-14T06:42:51.988Z,100606.19
2018-01-14T06:45:19.502Z,100599.37
2018-01-14T06:47:47.382Z,100602.84
2018-01-14T06:50:14.855Z,100609.78
2018-01-14T06:52:42.395Z,100603.34
2018-01-14T06:55:09.878Z,100599.31
2018-01-14T06:57:37.414Z,100600.78
2018-01-14T07:00:04.899Z,100608.51
2018-01-14T07:02:32.416Z,100604.61
2018-01-14T07:04:59.934Z,100609.11
2018-01-14T07:07:27.833Z,100607.89
2018-01-14T07:09:55.322Z,100602.83
2018-01-14T07:12:23.047Z,100609.13
2018-01-14T07:14:50.542Z,100609.23
2018-01-14T07:17:18.654Z,100613.45
2018-01-14T07:19:46.133Z,100613.33
2018-01-14T07:22:13.666Z,100612.33
2018-01-14T07:24:41.150Z,100621.31
2018-01-14T07:27:08.660Z,100616.66
2018-01-14T07:29:36.145Z,100619.34
2018-01-14T07:32:03.671Z,100618.62
2018-01-14T07:34:31.135Z,100624.63
2018-01-14T07:36:58.858Z,100620.37
2018-01-14T07:39:26.725Z,100617.77
2018-01-14T07:41:54.243Z,100622.42
2018-01-14T07:44:21.742Z,100622.84
2018-01-14T07:46:49.288Z,100626.34
2018-01-14T07:49:16.775Z,100618.12
2018-01-14T07:51:44.282Z,100617.89
2018-01-14T07:54:11.787Z,100625.53
2018-01-14T07:56:39.310Z,100626.13
2018-01-14T07:59:06.811Z,100624.06
2018-01-14T08:01:34.292Z,100632.45
2018-01-14T08:04:02.043Z,100634.52
2018-01-14T08:06:29.535Z,100632.86
2018-01-14T08:08:57.024Z,100632.47
2018-01-14T08:11:24.490Z,100635.15
2018-01-14T08:13:51.990Z,100646.84
2018-01-14T08:16:19.478Z,100646.08
2018-01-14T08:18:47.202Z,100640.66
2018-01-14T08:21:14.698Z,100643.04
2018-01-14T08:23:42.222Z,100644.20
2018-01-14T08:26:09.912Z,100647.51
2018-01-14T08:28:37.434Z,100648.95
2018-01-14T08:31:04.902Z,100655.98
2018-01-14T08:33:32.418Z,100661.05
2018-01-14T08:36:00.277Z,100661.26
2018-01-14T08:38:27.735Z,100654.05
2018-01-14T08:40:55.234Z,100655.61
2018-01-14T08:43:22.731Z,100657.91
2018-01-14T08:45:50.212Z,100659.48
2018-01-14T08:48:17.699Z,100656.55
2018-01-14T08:50:45.174Z,100663.28
2018-01-14T08:53:12.675Z,100659.46
2018-01-14T08:55:40.178Z,100663.50
2018-01-14T08:58:07.708Z,100657.91
2018-01-14T09:00:35.235Z,100662.58
2018-01-14T09:03:02.812Z,100658.88
2018-01-14T09:05:30.301Z,100666.83
2018-01-14T09:07:57.798Z,100661.78
2018-01-14T09:10:25.266Z,100665.92
2018-01-14T09:12:52.978Z,100663.14
2018-01-14T09:15:20.471Z,100664.16
2018-01-14T09:17:48.119Z,100668.30
2018-01-14T09:20:15.626Z,100660.95
2018-01-14T09:22:43.098Z,100663.76
2018-01-14T09:25:10.595Z,100663.21
2018-01-14T09:27:38.063Z,100665.09
2018-01-14T09:30:05.783Z,100670.68
2018-01-14T09:32:33.263Z,100671.41
2018-01-14T09:35:00.752Z,100673.78
2018-01-14T09:37:28.226Z,100677.09
2018-01-14T09:39:55.897Z,100676.25
2018-01-14T09:42:23.376Z,100674.81
2018-01-14T09:44:50.881Z,100680.22
2018-01-14T09:47:18.351Z,100680.60
2018-01-14T09:49:45.871Z,100682.27
2018-01-14T09:52:13.334Z,100672.24
2018-01-14T09:54:40.822Z,100669.86
2018-01-14T09:57:08.286Z,100670.17
2018-01-14T09:59:39.308Z,100662.30
2018-01-14T10:02:06.789Z,100658.05
2018-01-14T10:04:34.506Z,100654.22
2018-01-14T10:07:02.032Z,100648.94
2018-01-14T10:09:29.530Z,100645.23
2018-01-14T10:11:57.261Z,100652.27
2018-01-14T10:14:24.801Z,100656.09
2018-01-14T10:16:52.283Z,100650.61
2018-01-14T10:19:19.778Z,100653.89
2018-01-14T10:21:47.254Z,100650.87
2018-01-14T10:24:14.755Z,100651.94
2018-01-14T10:26:42.233Z,100645.34
2018-01-14T10:29:09.731Z,100650.30
2018-01-14T10:31:37.721Z,100644.98
2018-01-14T10:34:07.088Z,100646.89
2018-01-14T10:36:34.608Z,100644.60
2018-01-14T10:39:02.116Z,100637.53
2018-01-14T10:41:29.644Z,100635.68
2018-01-14T10:43:57.106Z,100641.14
2018-01-14T10:46:25.462Z,100637.28
2018-01-14T10:48:52.946Z,100630.89
2018-01-14T10:51:20.666Z,100639.30
2018-01-14T10:53:48.130Z,100638.95
2018-01-14T10:56:15.622Z,100643.77
2018-01-14T10:58:43.094Z,100630.97
2018-01-14T11:01:11.772Z,100638.80
2018-01-14T11:03:39.247Z,100628.86
2018-01-14T11:06:07.274Z,100629.50
2018-01-14T11:08:36.743Z,100631.78
2018-01-14T11:11:04.226Z,100631.62
2018-01-14T11:13:31.701Z,100629.41
2018-01-14T11:15:59.278Z,100628.58
2018-01-14T11:18:26.976Z,100626.22
2018-01-14T11:20:54.480Z,100626.16
2018-01-14T11:23:23.794Z,100629.18
2018-01-14T11:25:52.434Z,100626.44
2018-01-14T11:28:19.932Z,100620.24
2018-01-14T11:30:47.430Z,100619.67
2018-01-14T11:33:14.906Z,100620.37
2018-01-14T11:35:42.403Z,100608.95
2018-01-14T11:38:09.908Z,100620.66
2018-01-14T11:40:37.406Z,100618.45
2018-01-14T11:43:04.865Z,100615.72
2018-01-14T11:45:32.580Z,100609.23
2018-01-14T11:48:00.080Z,100610.98
2018-01-14T11:50:27.606Z,100612.92
2018-01-14T11:52:55.080Z,100613.05
2018-01-14T11:55:22.807Z,100613.53
2018-01-14T11:57:50.299Z,100604.73
2018-01-14T12:00:18.179Z,100619.85
2018-01-14T12:02:45.683Z,100605.72
2018-01-14T12:05:13.151Z,100611.52
2018-01-14T12:07:40.658Z,100615.16
2018-01-14T12:10:08.174Z,100611.11
2018-01-14T12:12:35.697Z,100607.35
2018-01-14T12:15:03.178Z,100603.77
2018-01-14T12:17:30.899Z,100604.09
2018-01-14T12:19:58.407Z,100607.07
2018-01-14T12:22:25.973Z,100603.21
2018-01-14T12:24:53.507Z,100602.19
2018-01-14T12:27:21.014Z,100596.80
2018-01-14T12:30:02.620Z,100595.87
2018-01-14T12:32:41.867Z,100604.89
2018-01-14T12:35:09.376Z,100596.37
2018-01-14T12:37:36.888Z,100607.96
2018-01-14T12:40:04.350Z,100605.78
2018-01-14T12:42:31.918Z,100604.41
2018-01-14T12:44:59.691Z,100606.61
2018-01-14T12:47:27.207Z,100598.73
2018-01-14T12:49:54.722Z,100593.81
2018-01-14T12:52:22.280Z,100586.93
2018-01-14T12:54:49.755Z,100589.77
2018-01-14T12:57:17.265Z,100595.06
2018-01-14T12:59:44.771Z,100592.09
2018-01-14T13:02:12.319Z,100594.38
2018-01-14T13:04:39.773Z,100583.06
2018-01-14T13:07:07.661Z,100587.06
2018-01-14T13:09:35.444Z,100585.39
2018-01-14T13:12:02.938Z,100595.28
2018-01-14T13:14:30.479Z,100584.98
2018-01-14T13:16:58.332Z,100588.97
2018-01-14T13:19:25.872Z,100577.98
2018-01-14T13:21:53.461Z,100575.80
2018-01-14T13:24:20.988Z,100579.19
2018-01-14T13:26:48.479Z,100577.47
2018-01-14T13:29:17.595Z,100577.69
2018-01-14T13:31:45.174Z,100575.36
2018-01-14T13:34:12.695Z,100564.05
2018-01-14T13:36:40.199Z,100570.77
2018-01-14T13:39:07.713Z,100572.75
2018-01-14T13:41:35.286Z,100570.25
2018-01-14T13:44:02.818Z,100576.06
2018-01-14T13:46:30.356Z,100571.88
2018-01-14T13:48:57.949Z,100576.64
2018-01-14T13:51:33.790Z,100581.70
2018-01-14T13:54:01.338Z,100584.20
2018-01-14T13:56:28.846Z,100586.88
2018-01-14T13:58:56.445Z,100589.34
2018-01-14T14:01:23.939Z,100586.09
2018-01-14T14:03:51.451Z,100586.34
2018-01-14T14:06:18.918Z,100582.66
2018-01-14T14:08:46.426Z,100582.93
2018-01-14T14:11:13.929Z,100578.33
2018-01-14T14:13:41.451Z,100578.01
2018-01-14T14:16:08.946Z,100572.02
2018-01-14T14:18:36.450Z,100577.48
2018-01-14T14:21:03.946Z,100576.86
2018-01-14T14:23:31.788Z,100582.20
2018-01-14T14:25:59.304Z,100574.66
2018-01-14T14:28:26.834Z,100569.20
2018-01-14T14:30:54.334Z,100558.45
2018-01-14T14:33:22.582Z,100568.20
2018-01-14T14:35:50.282Z,100574.72
2018-01-14T14:38:17.788Z,100576.37
2018-01-14T14:40:45.262Z,100568.70
2018-01-14T14:43:12.768Z,100570.45
2018-01-14T14:45:40.487Z,100568.42
2018-01-14T14:48:07.974Z,100580.39
2018-01-14T14:50:35.462Z,100579.37
2018-01-14T14:53:02.955Z,100571.09
2018-01-14T14:55:30.435Z,100581.33
2018-01-14T14:57:57.907Z,100581.33
2018-01-14T15:00:25.428Z,100586.81
2018-01-14T15:02:52.913Z,100587.22
2018-01-14T15:05:20.397Z,100584.02
2018-01-14T15:07:47.871Z,100577.30
2018-01-14T15:10:15.591Z,100580.00
2018-01-14T15:12:43.087Z,100582.78
2018-01-14T15:15:10.611Z,100582.45
2018-01-14T15:17:38.095Z,100582.66
2018-01-14T15:20:05.661Z,100583.27
2018-01-14T15:22:33.182Z,100585.89
2018-01-14T15:25:00.718Z,100579.97
2018-01-14T15:27:28.427Z,100581.52
2018-01-14T15:29:55.920Z,100573.03
2018-01-14T15:32:23.847Z,100575.80
2018-01-14T15:34:51.367Z,100571.69
2018-01-14T15:37:18.883Z,100567.64
2018-01-14T15:39:46.685Z,100570.33
2018-01-14T15:42:14.154Z,100579.09
2018-01-14T15:44:41.642Z,100583.97
2018-01-14T15:47:09.503Z,100588.70
2018-01-14T15:49:37.018Z,100587.48
2018-01-14T15:52:04.526Z,100579.72
2018-01-14T15:54:32.027Z,100582.94
2018-01-14T15:56:59.538Z,100574.55
2018-01-14T15:59:27.056Z,100583.15
2018-01-14T16:01:54.730Z,100574.37
2018-01-14T16:04:22.715Z,100579.12
2018-01-14T16:06:50.217Z,100577.84
2018-01-14T16:09:17.711Z,100585.81
2018-01-14T16:11:45.234Z,100580.22
2018-01-14T16:14:12.698Z,100580.23
2018-01-14T16:16:40.186Z,100574.36
2018-01-14T16:19:07.741Z,100575.06
2018-01-14T16:21:36.424Z,100574.81
2018-01-14T16:24:03.938Z,100579.37
2018-01-14T16:26:31.455Z,100574.53
2018-01-14T16:28:59.146Z,100574.53
2018-01-14T16:31:26.642Z,100576.41
2018-01-14T16:33:54.142Z,100571.83
2018-01-14T16:36:21.675Z,100574.38
2018-01-14T16:38:49.151Z,100576.56
2018-01-14T16:41:16.643Z,100583.69
2018-01-14T16:43:44.616Z,100592.27
2018-01-14T16:46:12.160Z,100589.61
2018-01-14T16:48:39.715Z,100587.03
2018-01-14T16:51:07.267Z,100589.81
2018-01-14T16:53:34.727Z,100585.58
2018-01-14T16:56:02.239Z,100582.13
2018-01-14T16:58:29.942Z,100574.94
2018-01-14T17:00:57.430Z,100582.75
2018-01-14T17:03:24.903Z,100579.56
2018-01-14T17:05:52.399Z,100581.95
2018-01-14T17:08:19.882Z,100582.87
2018-01-14T17:10:47.450Z,100580.81
2018-01-14T17:13:14.924Z,100579.35
2018-01-14T17:15:42.465Z,100581.43
2018-01-14T17:18:09.994Z,100584.02
2018-01-14T17:20:37.498Z,100586.09
2018-01-14T17:23:04.990Z,100590.20
2018-01-14T17:25:32.726Z,100593.08
2018-01-14T17:28:00.640Z,100588.25
2018-01-14T17:30:28.115Z,100587.11
2018-01-14T17:32:55.607Z,100579.78
2018-01-14T17:35:23.119Z,100578.73
2018-01-14T17:37:50.707Z,100583.08
2018-01-14T17:40:18.225Z,100580.39
2018-01-14T17:42:46.030Z,100580.09
2018-01-14T17:45:20.039Z,100571.92
2018-01-14T17:47:47.562Z,100581.83
2018-01-14T17:50:15.282Z,100577.92
2018-01-14T17:52:42.836Z,100576.37
2018-01-14T17:55:10.376Z,100570.58
2018-01-14T17:57:38.091Z,100579.86
2018-01-14T18:00:05.610Z,100572.95
2018-01-14T18:02:33.095Z,100576.45
2018-01-14T18:05:00.564Z,100569.95
2018-01-14T18:07:28.087Z,100572.72
2018-01-14T18:09:55.566Z,100567.27
2018-01-14T18:12:23.108Z,100569.92
2018-01-14T18:14:50.603Z,100567.73
2018-01-14T18:17:26.819Z,100563.38
2018-01-14T18:19:54.314Z,100562.43
2018-01-14T18:22:21.836Z,100561.48
2018-01-14T18:24:49.343Z,100555.16
2018-01-14T18:27:16.887Z,100555.70
2018-01-14T18:29:44.480Z,100557.82
2018-01-14T18:32:11.898Z,100550.58
2018-01-14T18:34:39.389Z,100559.02
2018-01-14T18:37:06.879Z,100562.17
2018-01-14T18:39:34.371Z,100570.84
2018-01-14T18:42:02.087Z,100569.30
2018-01-14T18:44:30.502Z,100562.23
2018-01-14T18:46:58.434Z,100553.70
2018-01-14T18:49:25.930Z,100551.02
2018-01-14T18:51:56.954Z,100549.77
2018-01-14T18:54:24.441Z,100557.46
2018-01-14T18:56:51.969Z,100559.83
2018-01-14T18:59:19.458Z,100563.52
2018-01-14T19:01:47.364Z,100555.66
2018-01-14T19:04:14.865Z,100558.38
2018-01-14T19:06:42.402Z,100553.31
2018-01-14T19:09:10.206Z,100564.71
2018-01-14T19:11:37.726Z,100570.85
2018-01-14T19:14:05.275Z,100563.14
2018-01-14T19:16:32.850Z,100558.39
2018-01-14T19:19:00.401Z,100562.37
2018-01-14T19:21:27.911Z,100571.31
2018-01-14T19:23:55.425Z,100575.55
2018-01-14T19:26:23.194Z,100570.95
2018-01-14T19:29:03.292Z,100568.05
2018-01-14T19:31:45.733Z,100560.53
2018-01-14T19:34:13.251Z,100553.80
2018-01-14T19:36:40.803Z,100557.31
2018-01-14T19:39:08.330Z,100560.45
2018-01-14T19:41:35.798Z,100553.35
2018-01-14T19:44:07.516Z,100562.63
2018-01-14T19:46:34.999Z,100553.73
2018-01-14T19:49:02.479Z,100555.80
2018-01-14T19:51:29.950Z,100552.34
2018-01-14T19:53:57.668Z,100552.78
2018-01-14T19:56:25.158Z,100561.56
2018-01-14T19:58:52.651Z,100553.83
2018-01-14T20:01:20.122Z,100555.73
2018-01-14T20:03:47.635Z,100560.98
2018-01-14T20:06:15.106Z,100557.64
2018-01-14T20:11:35.888Z,100554.77
2018-01-14T20:14:03.549Z,100550.78
2018-01-14T20:16:32.038Z,100550.95
2018-01-14T20:18:59.532Z,100554.53
2018-01-14T20:21:27.030Z,100557.81
2018-01-14T20:23:54.511Z,100550.50
2018-01-14T20:26:21.981Z,100551.27
2018-01-14T20:28:49.463Z,100542.23
2018-01-14T20:31:16.923Z,100545.32
2018-01-14T20:33:44.400Z,100534.69
2018-01-14T20:36:11.862Z,100530.06
2018-01-14T20:38:39.391Z,100526.77
2018-01-14T20:41:06.831Z,100525.85
2018-01-14T20:43:34.324Z,100526.36
2018-01-14T20:46:01.800Z,100530.41
2018-01-14T20:48:29.284Z,100527.16
2018-01-14T20:50:56.742Z,100531.87
2018-01-14T20:53:24.227Z,100537.00
2018-01-14T20:55:51.698Z,100534.78
2018-01-14T20:58:19.178Z,100533.00
2018-01-14T21:00:46.671Z,100526.70
2018-01-14T21:03:14.138Z,100524.34
2018-01-14T21:05:41.694Z,100520.42
2018-01-14T21:08:09.162Z,100523.74
2018-01-14T21:10:36.668Z,100521.69
2018-01-14T21:13:04.126Z,100518.95
2018-01-14T21:15:31.618Z,100519.50
2018-01-14T21:17:59.083Z,100527.16
2018-01-14T21:20:26.571Z,100526.55
2018-01-14T21:22:54.038Z,100526.36
2018-01-14T21:25:21.528Z,100523.69
2018-01-14T21:27:49.000Z,100518.39
2018-01-14T21:30:16.488Z,100518.05
2018-01-14T21:32:43.957Z,100519.80
2018-01-14T21:35:11.439Z,100520.19
2018-01-14T21:37:38.945Z,100524.83
2018-01-14T21:40:06.434Z,100521.40
2018-01-14T21:42:33.898Z,100520.61
2018-01-14T21:45:01.387Z,100519.55
2018-01-14T21:47:28.843Z,100518.25
2018-01-14T21:49:56.336Z,100515.59
2018-01-14T21:52:23.807Z,100513.59
2018-01-14T21:54:51.290Z,100514.59
2018-01-14T21:57:18.754Z,100514.52
2018-01-14T21:59:46.238Z,100504.55
2018-01-14T22:02:13.714Z,100506.07
2018-01-14T22:04:41.235Z,100506.42
2018-01-14T22:07:08.702Z,100506.98
2018-01-14T22:09:36.199Z,100507.21
2018-01-14T22:12:03.672Z,100504.05
2018-01-14T22:14:31.155Z,100507.58
2018-01-14T22:16:58.623Z,100500.75
2018-01-14T22:19:26.098Z,100501.05
2018-01-14T22:21:53.607Z,100499.74
2018-01-14T22:24:21.062Z,100498.25
2018-01-14T22:26:48.548Z,100496.27
2018-01-14T22:29:16.015Z,100488.35
2018-01-14T22:31:43.592Z,100483.45
2018-01-14T22:34:11.081Z,100477.64
2018-01-14T22:36:38.567Z,100476.15
2018-01-14T22:39:06.035Z,100473.61
2018-01-14T22:41:33.495Z,100478.90
2018-01-14T22:44:00.979Z,100473.90
2018-01-14T22:46:28.439Z,100469.38
2018-01-14T22:48:55.922Z,100464.21
2018-01-14T22:51:23.392Z,100463.61
2018-01-14T22:53:50.871Z,100457.67
2018-01-14T22:56:18.404Z,100460.44
2018-01-14T22:58:45.900Z,100459.09
2018-01-14T23:01:13.360Z,100457.14
2018-01-14T23:03:40.839Z,100449.03
2018-01-14T23:06:08.299Z,100452.48
2018-01-14T23:08:35.762Z,100451.43
2018-01-14T23:11:03.252Z,100449.73
2018-01-14T23:13:30.710Z,100447.64
2018-01-14T23:15:58.194Z,100456.75
2018-01-14T23:18:25.658Z,100446.92
2018-01-14T23:20:53.191Z,100453.38
2018-01-14T23:23:20.656Z,100453.86
2018-01-14T23:25:48.157Z,100445.09
2018-01-14T23:28:15.622Z,100449.78
2018-01-14T23:30:43.269Z,100441.09
2018-01-14T23:33:10.734Z,100434.77
2018-01-14T23:35:38.190Z,100437.33
2018-01-14T23:38:05.713Z,100438.41
2018-01-14T23:40:33.197Z,100431.16
2018-01-14T23:43:00.683Z,100426.41
2018-01-14T23:45:28.151Z,100425.20
2018-01-14T23:47:55.631Z,100426.39
2018-01-14T23:50:23.094Z,100431.28
2018-01-14T23:52:50.574Z,100419.91
2018-01-14T23:55:18.039Z,100414.81
2018-01-14T23:57:45.541Z,100419.36
